sensor_id;sensor_type;location;lat;lon;timestamp;pressure;altitude;pressure_sealevel;temperature;humidity
79123;BME280;68526;44.600;26.032;2023-11-21T00:00:02;100160.28;;;5.86;79.10
79123;BME280;68526;44.600;26.032;2023-11-21T00:00:20;100161.63;;;5.88;79.10
79123;BME280;68526;44.600;26.032;2023-11-21T00:00:36;100160.00;;;5.87;78.91
79123;BME280;68526;44.600;26.032;2023-11-21T00:00:52;100165.09;;;5.94;79.13
79123;BME280;68526;44.600;26.032;2023-11-21T00:01:08;100172.97;;;5.96;78.96
79123;BME280;68526;44.600;26.032;2023-11-21T00:01:24;100167.22;;;5.97;79.07
79123;BME280;68526;44.600;26.032;2023-11-21T00:01:40;100169.94;;;5.97;78.80
79123;BME280;68526;44.600;26.032;2023-11-21T00:01:57;100177.00;;;5.98;78.95
79123;BME280;68526;44.600;26.032;2023-11-21T00:02:13;100165.84;;;6.00;78.97
79123;BME280;68526;44.600;26.032;2023-11-21T00:02:29;100167.47;;;6.01;78.88
79123;BME280;68526;44.600;26.032;2023-11-21T00:02:46;100163.13;;;6.00;78.83
79123;BME280;68526;44.600;26.032;2023-11-21T00:03:02;100166.66;;;6.00;79.18
79123;BME280;68526;44.600;26.032;2023-11-21T00:03:19;100165.03;;;5.99;79.05
79123;BME280;68526;44.600;26.032;2023-11-21T00:03:35;100160.41;;;6.00;78.75
79123;BME280;68526;44.600;26.032;2023-11-21T00:03:51;100160.41;;;6.00;78.97
79123;BME280;68526;44.600;26.032;2023-11-21T00:04:10;100159.59;;;5.99;79.16
79123;BME280;68526;44.600;26.032;2023-11-21T00:04:26;100161.50;;;5.99;78.77
79123;BME280;68526;44.600;26.032;2023-11-21T00:04:43;100164.44;;;6.02;78.88
79123;BME280;68526;44.600;26.032;2023-11-21T00:04:59;100167.16;;;6.02;79.03
79123;BME280;68526;44.600;26.032;2023-11-21T00:05:15;100163.94;;;6.00;78.75
79123;BME280;68526;44.600;26.032;2023-11-21T00:05:31;100163.63;;;6.02;78.63
79123;BME280;68526;44.600;26.032;2023-11-21T00:05:47;100160.91;;;6.02;78.63
79123;BME280;68526;44.600;26.032;2023-11-21T00:06:04;100159.81;;;6.03;79.02
79123;BME280;68526;44.600;26.032;2023-11-21T00:06:24;100161.50;;;5.99;78.66
79123;BME280;68526;44.600;26.032;2023-11-21T00:06:39;100161.50;;;5.99;78.79
79123;BME280;68526;44.600;26.032;2023-11-21T00:06:56;100161.50;;;5.99;79.04
79123;BME280;68526;44.600;26.032;2023-11-21T00:07:12;100164.19;;;5.99;79.06
79123;BME280;68526;44.600;26.032;2023-11-21T00:07:28;100161.22;;;6.00;78.49
79123;BME280;68526;44.600;26.032;2023-11-21T00:07:43;100162.31;;;5.99;78.95
79123;BME280;68526;44.600;26.032;2023-11-21T00:07:59;100158.50;;;6.00;78.44
79123;BME280;68526;44.600;26.032;2023-11-21T00:08:15;100168.84;;;5.98;78.59
79123;BME280;68526;44.600;26.032;2023-11-21T00:08:32;100159.06;;;5.97;78.67
79123;BME280;68526;44.600;26.032;2023-11-21T00:08:48;100156.34;;;5.97;78.42
79123;BME280;68526;44.600;26.032;2023-11-21T00:09:04;100164.50;;;5.97;78.62
79123;BME280;68526;44.600;26.032;2023-11-21T00:09:20;100157.28;;;5.87;78.49
79123;BME280;68526;44.600;26.032;2023-11-21T00:09:36;100166.22;;;5.93;78.31
79123;BME280;68526;44.600;26.032;2023-11-21T00:09:52;100160.25;;;5.91;78.74
79123;BME280;68526;44.600;26.032;2023-11-21T00:10:12;100156.94;;;5.94;78.72
79123;BME280;68526;44.600;26.032;2023-11-21T00:10:31;100168.63;;;5.95;78.82
79123;BME280;68526;44.600;26.032;2023-11-21T00:10:47;100162.91;;;5.96;78.31
79123;BME280;68526;44.600;26.032;2023-11-21T00:11:04;100168.34;;;5.96;78.41
79123;BME280;68526;44.600;26.032;2023-11-21T00:11:20;100165.63;;;5.96;78.52
79123;BME280;68526;44.600;26.032;2023-11-21T00:11:36;100166.41;;;5.97;78.60
79123;BME280;68526;44.600;26.032;2023-11-21T00:11:53;100163.41;;;5.98;78.05
79123;BME280;68526;44.600;26.032;2023-11-21T00:12:09;100162.09;;;5.96;78.46
79123;BME280;68526;44.600;26.032;2023-11-21T00:12:26;100164.31;;;5.94;78.63
79123;BME280;68526;44.600;26.032;2023-11-21T00:12:43;100165.91;;;5.95;78.24
79123;BME280;68526;44.600;26.032;2023-11-21T00:12:59;100175.97;;;5.94;78.22
79123;BME280;68526;44.600;26.032;2023-11-21T00:13:15;100162.09;;;5.96;78.46
79123;BME280;68526;44.600;26.032;2023-11-21T00:13:30;100163.50;;;5.93;78.39
79123;BME280;68526;44.600;26.032;2023-11-21T00:13:46;100161.84;;;5.92;78.43
79123;BME280;68526;44.600;26.032;2023-11-21T00:14:04;100171.66;;;5.93;78.32
79123;BME280;68526;44.600;26.032;2023-11-21T00:14:20;100164.56;;;5.92;78.53
79123;BME280;68526;44.600;26.032;2023-11-21T00:14:35;100167.56;;;5.90;78.48
79123;BME280;68526;44.600;26.032;2023-11-21T00:14:51;100169.75;;;5.94;78.27
79123;BME280;68526;44.600;26.032;2023-11-21T00:15:08;100164.31;;;5.94;78.31
79123;BME280;68526;44.600;26.032;2023-11-21T00:15:27;100162.38;;;5.94;78.30
79123;BME280;68526;44.600;26.032;2023-11-21T00:15:43;100157.53;;;5.91;78.33
79123;BME280;68526;44.600;26.032;2023-11-21T00:16:00;100163.78;;;5.92;78.75
79123;BME280;68526;44.600;26.032;2023-11-21T00:16:16;100155.88;;;5.90;78.19
79123;BME280;68526;44.600;26.032;2023-11-21T00:16:32;100168.66;;;5.89;78.19
79123;BME280;68526;44.600;26.032;2023-11-21T00:16:48;100161.03;;;5.92;78.13
79123;BME280;68526;44.600;26.032;2023-11-21T00:17:04;100168.94;;;5.93;78.09
79123;BME280;68526;44.600;26.032;2023-11-21T00:17:20;100164.31;;;5.94;78.40
79123;BME280;68526;44.600;26.032;2023-11-21T00:17:36;100160.47;;;5.95;78.08
79123;BME280;68526;44.600;26.032;2023-11-21T00:17:52;100157.22;;;5.93;78.21
79123;BME280;68526;44.600;26.032;2023-11-21T00:18:09;100166.22;;;5.93;78.47
79123;BME280;68526;44.600;26.032;2023-11-21T00:18:25;100161.59;;;5.94;78.03
79123;BME280;68526;44.600;26.032;2023-11-21T00:18:41;100164.31;;;5.94;78.31
79123;BME280;68526;44.600;26.032;2023-11-21T00:18:58;100167.28;;;5.92;78.20
79123;BME280;68526;44.600;26.032;2023-11-21T00:19:14;100162.66;;;5.93;77.95
79123;BME280;68526;44.600;26.032;2023-11-21T00:19:29;100173.31;;;5.89;78.57
79123;BME280;68526;44.600;26.032;2023-11-21T00:19:45;100168.97;;;5.88;77.86
79123;BME280;68526;44.600;26.032;2023-11-21T00:20:01;100173.84;;;5.91;78.23
79123;BME280;68526;44.600;26.032;2023-11-21T00:20:21;100158.91;;;5.88;78.24
79123;BME280;68526;44.600;26.032;2023-11-21T00:20:37;100171.38;;;5.89;78.00
79123;BME280;68526;44.600;26.032;2023-11-21T00:20:53;100161.31;;;5.90;78.21
79123;BME280;68526;44.600;26.032;2023-11-21T00:21:09;100162.13;;;5.90;77.78
79123;BME280;68526;44.600;26.032;2023-11-21T00:21:24;100172.19;;;5.90;78.06
79123;BME280;68526;44.600;26.032;2023-11-21T00:21:40;100159.72;;;5.89;78.23
79123;BME280;68526;44.600;26.032;2023-11-21T00:21:59;100166.25;;;5.88;78.27
79123;BME280;68526;44.600;26.032;2023-11-21T00:22:15;100160.28;;;5.86;78.39
79123;BME280;68526;44.600;26.032;2023-11-21T00:22:32;100159.78;;;5.84;78.39
79123;BME280;68526;44.600;26.032;2023-11-21T00:22:48;100166.81;;;5.85;77.98
79123;BME280;68526;44.600;26.032;2023-11-21T00:23:04;100164.41;;;5.83;78.36
79123;BME280;68526;44.600;26.032;2023-11-21T00:23:20;100165.22;;;5.84;78.20
79123;BME280;68526;44.600;26.032;2023-11-21T00:23:35;100165.72;;;5.86;78.17
79123;BME280;68526;44.600;26.032;2023-11-21T00:23:51;100171.16;;;5.86;78.09
79123;BME280;68526;44.600;26.032;2023-11-21T00:24:08;100169.03;;;5.83;78.34
79123;BME280;68526;44.600;26.032;2023-11-21T00:24:25;100160.13;;;5.77;78.22
79123;BME280;68526;44.600;26.032;2023-11-21T00:24:41;100169.09;;;5.78;78.09
79123;BME280;68526;44.600;26.032;2023-11-21T00:24:57;100168.81;;;5.79;78.56
79123;BME280;68526;44.600;26.032;2023-11-21T00:25:13;100164.16;;;5.80;78.32
79123;BME280;68526;44.600;26.032;2023-11-21T00:25:30;100168.50;;;5.81;78.02
79123;BME280;68526;44.600;26.032;2023-11-21T00:25:46;100167.94;;;5.84;78.08
79123;BME280;68526;44.600;26.032;2023-11-21T00:26:02;100166.31;;;5.83;78.21
79123;BME280;68526;44.600;26.032;2023-11-21T00:26:19;100167.13;;;5.83;78.17
79123;BME280;68526;44.600;26.032;2023-11-21T00:26:36;100164.41;;;5.83;77.72
79123;BME280;68526;44.600;26.032;2023-11-21T00:26:52;100167.94;;;5.84;77.89
79123;BME280;68526;44.600;26.032;2023-11-21T00:27:08;100171.75;;;5.83;77.96
79123;BME280;68526;44.600;26.032;2023-11-21T00:27:24;100162.25;;;5.80;77.99
79123;BME280;68526;44.600;26.032;2023-11-21T00:27:40;100163.16;;;5.76;78.39
79123;BME280;68526;44.600;26.032;2023-11-21T00:27:56;100161.00;;;5.73;78.26
79123;BME280;68526;44.600;26.032;2023-11-21T00:28:11;100160.72;;;5.74;78.06
79123;BME280;68526;44.600;26.032;2023-11-21T00:28:27;100160.44;;;5.76;78.40
79123;BME280;68526;44.600;26.032;2023-11-21T00:28:45;100162.91;;;5.72;78.26
79123;BME280;68526;44.600;26.032;2023-11-21T00:29:01;100158.78;;;5.75;78.32
79123;BME280;68526;44.600;26.032;2023-11-21T00:29:17;100158.00;;;5.74;78.02
79123;BME280;68526;44.600;26.032;2023-11-21T00:29:33;100163.44;;;5.74;78.31
79123;BME280;68526;44.600;26.032;2023-11-21T00:29:49;100158.00;;;5.74;77.95
79123;BME280;68526;44.600;26.032;2023-11-21T00:30:06;100161.31;;;5.71;77.84
79123;BME280;68526;44.600;26.032;2023-11-21T00:30:22;100158.28;;;5.73;78.10
79123;BME280;68526;44.600;26.032;2023-11-21T00:30:40;100156.69;;;5.72;77.66
79123;BME280;68526;44.600;26.032;2023-11-21T00:30:56;100151.75;;;5.74;77.64
79123;BME280;68526;44.600;26.032;2023-11-21T00:31:12;100162.63;;;5.74;77.95
79123;BME280;68526;44.600;26.032;2023-11-21T00:31:29;100149.03;;;5.74;78.16
79123;BME280;68526;44.600;26.032;2023-11-21T00:31:46;100153.66;;;5.73;78.06
79123;BME280;68526;44.600;26.032;2023-11-21T00:32:02;100158.28;;;5.73;78.13
79123;BME280;68526;44.600;26.032;2023-11-21T00:32:18;100155.63;;;5.68;78.06
79123;BME280;68526;44.600;26.032;2023-11-21T00:32:35;100153.56;;;5.59;78.10
79123;BME280;68526;44.600;26.032;2023-11-21T00:32:51;100155.13;;;5.66;78.41
79123;BME280;68526;44.600;26.032;2023-11-21T00:33:08;100156.00;;;5.61;78.88
79123;BME280;68526;44.600;26.032;2023-11-21T00:33:24;100158.66;;;5.66;78.68
79123;BME280;68526;44.600;26.032;2023-11-21T00:33:40;100152.41;;;5.66;78.41
79123;BME280;68526;44.600;26.032;2023-11-21T00:33:56;100152.47;;;5.60;78.47
79123;BME280;68526;44.600;26.032;2023-11-21T00:34:12;100162.25;;;5.61;78.74
79123;BME280;68526;44.600;26.032;2023-11-21T00:34:28;100147.84;;;5.61;78.83
79123;BME280;68526;44.600;26.032;2023-11-21T00:34:45;100156.81;;;5.61;78.50
79123;BME280;68526;44.600;26.032;2023-11-21T00:35:00;100155.19;;;5.60;78.93
79123;BME280;68526;44.600;26.032;2023-11-21T00:35:17;100137.28;;;5.59;78.66
79123;BME280;68526;44.600;26.032;2023-11-21T00:35:33;100150.25;;;5.62;78.30
79123;BME280;68526;44.600;26.032;2023-11-21T00:35:49;100150.56;;;5.61;78.43
79123;BME280;68526;44.600;26.032;2023-11-21T00:36:05;100151.06;;;5.63;78.40
79123;BME280;68526;44.600;26.032;2023-11-21T00:36:24;100156.22;;;5.65;78.95
79123;BME280;68526;44.600;26.032;2023-11-21T00:36:41;100148.09;;;5.65;78.12
79123;BME280;68526;44.600;26.032;2023-11-21T00:36:57;100146.47;;;5.63;78.22
79123;BME280;68526;44.600;26.032;2023-11-21T00:37:13;100152.47;;;5.60;78.47
79123;BME280;68526;44.600;26.032;2023-11-21T00:37:30;100131.75;;;5.46;78.55
79123;BME280;68526;44.600;26.032;2023-11-21T00:37:47;100152.47;;;5.60;78.37
79123;BME280;68526;44.600;26.032;2023-11-21T00:38:05;100152.19;;;5.62;78.50
79123;BME280;68526;44.600;26.032;2023-11-21T00:38:20;100157.59;;;5.62;78.14
79123;BME280;68526;44.600;26.032;2023-11-21T00:38:36;100161.72;;;5.59;78.37
79123;BME280;68526;44.600;26.032;2023-11-21T00:38:55;100152.78;;;5.59;77.91
79123;BME280;68526;44.600;26.032;2023-11-21T00:39:11;100152.78;;;5.59;78.32
79123;BME280;68526;44.600;26.032;2023-11-21T00:39:28;100151.97;;;5.58;77.87
79123;BME280;68526;44.600;26.032;2023-11-21T00:39:44;100160.38;;;5.57;78.51
79123;BME280;68526;44.600;26.032;2023-11-21T00:40:00;100157.91;;;5.60;78.03
79123;BME280;68526;44.600;26.032;2023-11-21T00:40:19;100156.28;;;5.59;77.95
79123;BME280;68526;44.600;26.032;2023-11-21T00:40:36;100153.34;;;5.56;78.17
79123;BME280;68526;44.600;26.032;2023-11-21T00:40:53;100145.53;;;5.49;78.25
79123;BME280;68526;44.600;26.032;2023-11-21T00:41:11;100159.06;;;5.54;77.99
79123;BME280;68526;44.600;26.032;2023-11-21T00:41:27;100154.16;;;5.56;78.18
79123;BME280;68526;44.600;26.032;2023-11-21T00:41:43;100154.16;;;5.56;77.92
79123;BME280;68526;44.600;26.032;2023-11-21T00:42:00;100153.88;;;5.58;77.82
79123;BME280;68526;44.600;26.032;2023-11-21T00:42:16;100151.97;;;5.58;77.89
79123;BME280;68526;44.600;26.032;2023-11-21T00:42:32;100150.06;;;5.59;77.67
79123;BME280;68526;44.600;26.032;2023-11-21T00:42:49;100155.78;;;5.57;78.43
79123;BME280;68526;44.600;26.032;2023-11-21T00:43:06;100154.44;;;5.55;78.35
79123;BME280;68526;44.600;26.032;2023-11-21T00:43:22;100150.13;;;5.54;78.18
79123;BME280;68526;44.600;26.032;2023-11-21T00:43:37;100152.59;;;5.50;78.38
79123;BME280;68526;44.600;26.032;2023-11-21T00:43:53;100149.06;;;5.50;78.19
79123;BME280;68526;44.600;26.032;2023-11-21T00:44:09;100153.94;;;5.53;78.00
79123;BME280;68526;44.600;26.032;2023-11-21T00:44:25;100147.97;;;5.51;78.04
79123;BME280;68526;44.600;26.032;2023-11-21T00:44:41;100156.13;;;5.51;78.40
79123;BME280;68526;44.600;26.032;2023-11-21T00:44:58;100157.75;;;5.52;78.21
79123;BME280;68526;44.600;26.032;2023-11-21T00:45:14;100151.28;;;5.48;78.31
79123;BME280;68526;44.600;26.032;2023-11-21T00:45:30;100155.59;;;5.49;78.31
79123;BME280;68526;44.600;26.032;2023-11-21T00:45:47;100152.59;;;5.50;78.02
79123;BME280;68526;44.600;26.032;2023-11-21T00:46:04;100152.31;;;5.52;77.80
79123;BME280;68526;44.600;26.032;2023-11-21T00:46:21;100149.88;;;5.50;77.35
79123;BME280;68526;44.600;26.032;2023-11-21T00:46:36;100153.41;;;5.51;77.83
79123;BME280;68526;44.600;26.032;2023-11-21T00:46:53;100159.44;;;5.48;77.74
79123;BME280;68526;44.600;26.032;2023-11-21T00:47:09;100141.28;;;5.43;77.95
79123;BME280;68526;44.600;26.032;2023-11-21T00:47:25;100156.63;;;5.34;77.99
79123;BME280;68526;44.600;26.032;2023-11-21T00:47:41;100152.34;;;5.28;78.51
79123;BME280;68526;44.600;26.032;2023-11-21T00:47:57;100151.81;;;5.26;78.45
79123;BME280;68526;44.600;26.032;2023-11-21T00:48:13;100155.31;;;5.26;79.09
79123;BME280;68526;44.600;26.032;2023-11-21T00:48:29;100156.66;;;5.29;78.71
79123;BME280;68526;44.600;26.032;2023-11-21T00:48:45;100156.38;;;5.30;78.31
79123;BME280;68526;44.600;26.032;2023-11-21T00:49:02;100159.09;;;5.30;78.29
79123;BME280;68526;44.600;26.032;2023-11-21T00:49:19;100158.78;;;5.32;78.57
79123;BME280;68526;44.600;26.032;2023-11-21T00:49:36;100150.66;;;5.32;78.34
79123;BME280;68526;44.600;26.032;2023-11-21T00:49:52;100154.47;;;5.31;78.30
79123;BME280;68526;44.600;26.032;2023-11-21T00:50:08;100151.75;;;5.31;78.70
79123;BME280;68526;44.600;26.032;2023-11-21T00:50:25;100150.94;;;5.30;78.82
79123;BME280;68526;44.600;26.032;2023-11-21T00:50:40;100153.66;;;5.30;78.84
79123;BME280;68526;44.600;26.032;2023-11-21T00:50:57;100147.41;;;5.30;78.81
79123;BME280;68526;44.600;26.032;2023-11-21T00:51:13;100152.84;;;5.30;78.72
79123;BME280;68526;44.600;26.032;2023-11-21T00:51:29;100154.47;;;5.31;78.32
79123;BME280;68526;44.600;26.032;2023-11-21T00:51:45;100149.09;;;5.26;78.56
79123;BME280;68526;44.600;26.032;2023-11-21T00:52:00;100155.06;;;5.28;78.52
79123;BME280;68526;44.600;26.032;2023-11-21T00:52:17;100145.00;;;5.28;78.59
79123;BME280;68526;44.600;26.032;2023-11-21T00:52:32;100148.53;;;5.29;78.31
79123;BME280;68526;44.600;26.032;2023-11-21T00:52:49;100141.75;;;5.26;78.13
79123;BME280;68526;44.600;26.032;2023-11-21T00:53:07;100151.00;;;5.25;78.15
79123;BME280;68526;44.600;26.032;2023-11-21T00:53:22;100145.56;;;5.25;78.85
79123;BME280;68526;44.600;26.032;2023-11-21T00:53:38;100154.31;;;5.22;78.75
79123;BME280;68526;44.600;26.032;2023-11-21T00:53:54;100147.53;;;5.20;78.25
79123;BME280;68526;44.600;26.032;2023-11-21T00:54:10;100143.72;;;5.21;78.60
79123;BME280;68526;44.600;26.032;2023-11-21T00:54:27;100146.44;;;5.21;78.79
79123;BME280;68526;44.600;26.032;2023-11-21T00:54:44;100151.91;;;5.16;79.15
79123;BME280;68526;44.600;26.032;2023-11-21T00:55:00;100152.22;;;5.14;79.12
79123;BME280;68526;44.600;26.032;2023-11-21T00:55:16;100146.81;;;5.09;78.96
79123;BME280;68526;44.600;26.032;2023-11-21T00:55:33;100148.72;;;5.08;79.30
79123;BME280;68526;44.600;26.032;2023-11-21T00:55:50;100152.84;;;5.06;79.02
79123;BME280;68526;44.600;26.032;2023-11-21T00:56:08;100143.91;;;5.05;79.43
79123;BME280;68526;44.600;26.032;2023-11-21T00:56:24;100155.56;;;5.06;79.49
79123;BME280;68526;44.600;26.032;2023-11-21T00:56:40;100151.78;;;5.02;79.83
79123;BME280;68526;44.600;26.032;2023-11-21T00:56:56;100151.78;;;5.02;79.78
79123;BME280;68526;44.600;26.032;2023-11-21T00:57:12;100141.19;;;5.05;79.61
79123;BME280;68526;44.600;26.032;2023-11-21T00:57:28;100142.56;;;5.03;79.61
79123;BME280;68526;44.600;26.032;2023-11-21T00:57:44;100145.91;;;4.95;79.49
79123;BME280;68526;44.600;26.032;2023-11-21T00:58:01;100143.13;;;5.00;79.28
79123;BME280;68526;44.600;26.032;2023-11-21T00:58:19;100145.31;;;4.98;79.30
79123;BME280;68526;44.600;26.032;2023-11-21T00:58:35;100143.94;;;5.00;79.53
79123;BME280;68526;44.600;26.032;2023-11-21T00:58:51;100145.25;;;5.03;79.55
79123;BME280;68526;44.600;26.032;2023-11-21T00:59:07;100146.88;;;5.04;79.50
79123;BME280;68526;44.600;26.032;2023-11-21T00:59:23;100146.38;;;5.02;79.69
79123;BME280;68526;44.600;26.032;2023-11-21T00:59:39;100145.84;;;5.00;79.88
79123;BME280;68526;44.600;26.032;2023-11-21T00:59:55;100143.44;;;4.98;79.63
79123;BME280;68526;44.600;26.032;2023-11-21T01:00:13;100145.56;;;5.01;79.80
79123;BME280;68526;44.600;26.032;2023-11-21T01:00:32;100147.47;;;5.01;79.72
79123;BME280;68526;44.600;26.032;2023-11-21T01:00:50;100151.00;;;5.01;79.49
79123;BME280;68526;44.600;26.032;2023-11-21T01:01:05;100147.47;;;5.01;79.39
79123;BME280;68526;44.600;26.032;2023-11-21T01:01:21;100149.38;;;5.00;79.72
79123;BME280;68526;44.600;26.032;2023-11-21T01:01:38;100151.59;;;4.98;79.94
79123;BME280;68526;44.600;26.032;2023-11-21T01:01:53;100150.22;;;4.96;79.80
79123;BME280;68526;44.600;26.032;2023-11-21T01:02:10;100149.94;;;4.97;79.74
79123;BME280;68526;44.600;26.032;2023-11-21T01:02:26;100144.81;;;4.96;79.99
79123;BME280;68526;44.600;26.032;2023-11-21T01:02:42;100141.13;;;4.87;79.97
79123;BME280;68526;44.600;26.032;2023-11-21T01:02:59;100154.09;;;4.90;79.75
79123;BME280;68526;44.600;26.032;2023-11-21T01:03:15;100148.41;;;4.86;80.10
79123;BME280;68526;44.600;26.032;2023-11-21T01:03:30;100153.13;;;4.80;80.57
79123;BME280;68526;44.600;26.032;2023-11-21T01:03:46;100155.25;;;4.83;80.12
79123;BME280;68526;44.600;26.032;2023-11-21T01:04:04;100154.44;;;4.83;80.43
79123;BME280;68526;44.600;26.032;2023-11-21T01:04:21;100149.06;;;4.78;80.41
79123;BME280;68526;44.600;26.032;2023-11-21T01:04:37;100148.75;;;4.79;80.16
79123;BME280;68526;44.600;26.032;2023-11-21T01:04:53;100146.03;;;4.79;80.31
79123;BME280;68526;44.600;26.032;2023-11-21T01:05:09;100152.81;;;4.82;80.62
79123;BME280;68526;44.600;26.032;2023-11-21T01:05:26;100149.56;;;4.80;80.78
79123;BME280;68526;44.600;26.032;2023-11-21T01:05:43;100147.91;;;4.84;80.15
79123;BME280;68526;44.600;26.032;2023-11-21T01:05:59;100148.72;;;4.85;80.55
79123;BME280;68526;44.600;26.032;2023-11-21T01:06:15;100146.81;;;4.85;80.49
79123;BME280;68526;44.600;26.032;2023-11-21T01:06:30;100153.03;;;4.86;80.11
79123;BME280;68526;44.600;26.032;2023-11-21T01:06:46;100149.25;;;4.87;80.42
79123;BME280;68526;44.600;26.032;2023-11-21T01:07:02;100148.97;;;4.88;80.31
79123;BME280;68526;44.600;26.032;2023-11-21T01:07:18;100152.78;;;4.87;80.08
79123;BME280;68526;44.600;26.032;2023-11-21T01:07:36;100159.28;;;4.86;80.03
79123;BME280;68526;44.600;26.032;2023-11-21T01:07:53;100155.75;;;4.86;80.15
79123;BME280;68526;44.600;26.032;2023-11-21T01:08:08;100163.38;;;4.83;79.99
79123;BME280;68526;44.600;26.032;2023-11-21T01:08:24;100161.25;;;4.80;80.27
79123;BME280;68526;44.600;26.032;2023-11-21T01:08:40;100161.25;;;4.80;79.72
79123;BME280;68526;44.600;26.032;2023-11-21T01:08:56;100163.13;;;4.80;80.15
79123;BME280;68526;44.600;26.032;2023-11-21T01:09:12;100164.78;;;4.81;80.01
79123;BME280;68526;44.600;26.032;2023-11-21T01:09:28;100161.47;;;4.84;79.99
79123;BME280;68526;44.600;26.032;2023-11-21T01:09:45;100166.91;;;4.84;80.15
79123;BME280;68526;44.600;26.032;2023-11-21T01:10:01;100157.66;;;4.85;80.27
79123;BME280;68526;44.600;26.032;2023-11-21T01:10:17;100146.28;;;4.83;79.92
79123;BME280;68526;44.600;26.032;2023-11-21T01:10:33;100158.22;;;4.87;79.62
79123;BME280;68526;44.600;26.032;2023-11-21T01:10:49;100150.56;;;4.89;79.71
79123;BME280;68526;44.600;26.032;2023-11-21T01:11:05;100162.53;;;4.88;80.11
79123;BME280;68526;44.600;26.032;2023-11-21T01:11:23;100154.38;;;4.88;80.21
79123;BME280;68526;44.600;26.032;2023-11-21T01:11:40;100157.91;;;4.89;80.19
79123;BME280;68526;44.600;26.032;2023-11-21T01:11:56;100153.34;;;4.84;79.74
79123;BME280;68526;44.600;26.032;2023-11-21T01:12:12;100154.38;;;4.88;79.79
79123;BME280;68526;44.600;26.032;2023-11-21T01:12:28;100147.06;;;4.89;79.63
79123;BME280;68526;44.600;26.032;2023-11-21T01:12:45;100121.19;;;4.67;79.93
79123;BME280;68526;44.600;26.032;2023-11-21T01:13:01;100156.00;;;4.89;79.88
79123;BME280;68526;44.600;26.032;2023-11-21T01:13:17;100159.53;;;4.90;79.78
79123;BME280;68526;44.600;26.032;2023-11-21T01:13:34;100156.28;;;4.88;79.69
79123;BME280;68526;44.600;26.032;2023-11-21T01:13:50;100156.28;;;4.88;79.61
79123;BME280;68526;44.600;26.032;2023-11-21T01:14:06;100157.31;;;4.92;79.58
79123;BME280;68526;44.600;26.032;2023-11-21T01:14:24;100161.69;;;4.93;79.80
79123;BME280;68526;44.600;26.032;2023-11-21T01:14:42;100156.75;;;4.95;79.89
79123;BME280;68526;44.600;26.032;2023-11-21T01:14:58;100154.06;;;4.95;79.86
79123;BME280;68526;44.600;26.032;2023-11-21T01:15:15;100149.72;;;4.94;79.90
79123;BME280;68526;44.600;26.032;2023-11-21T01:15:32;100155.66;;;4.96;79.50
79123;BME280;68526;44.600;26.032;2023-11-21T01:15:50;100156.47;;;4.96;79.66
79123;BME280;68526;44.600;26.032;2023-11-21T01:16:07;100152.13;;;4.95;79.50
79123;BME280;68526;44.600;26.032;2023-11-21T01:16:23;100152.72;;;4.92;79.36
79123;BME280;68526;44.600;26.032;2023-11-21T01:16:40;100153.28;;;4.89;79.79
79123;BME280;68526;44.600;26.032;2023-11-21T01:16:56;100155.44;;;4.92;79.69
79123;BME280;68526;44.600;26.032;2023-11-21T01:17:12;100149.19;;;4.92;79.37
79123;BME280;68526;44.600;26.032;2023-11-21T01:17:28;100149.19;;;4.92;79.08
79123;BME280;68526;44.600;26.032;2023-11-21T01:17:44;100148.38;;;4.91;78.97
79123;BME280;68526;44.600;26.032;2023-11-21T01:18:00;100147.34;;;4.87;79.35
79123;BME280;68526;44.600;26.032;2023-11-21T01:18:16;100153.81;;;4.91;79.47
79123;BME280;68526;44.600;26.032;2023-11-21T01:18:32;100147.84;;;4.89;79.19
79123;BME280;68526;44.600;26.032;2023-11-21T01:18:48;100148.41;;;4.86;79.74
79123;BME280;68526;44.600;26.032;2023-11-21T01:19:04;100144.97;;;4.80;79.22
79123;BME280;68526;44.600;26.032;2023-11-21T01:19:20;100160.97;;;4.82;79.40
79123;BME280;68526;44.600;26.032;2023-11-21T01:19:35;100158.53;;;4.80;79.37
79123;BME280;68526;44.600;26.032;2023-11-21T01:19:52;100152.63;;;4.73;79.77
79123;BME280;68526;44.600;26.032;2023-11-21T01:20:09;100159.94;;;4.73;80.09
79123;BME280;68526;44.600;26.032;2023-11-21T01:20:28;100156.44;;;4.72;79.61
79123;BME280;68526;44.600;26.032;2023-11-21T01:20:44;100160.25;;;4.71;80.34
79123;BME280;68526;44.600;26.032;2023-11-21T01:21:02;100158.94;;;4.69;80.22
79123;BME280;68526;44.600;26.032;2023-11-21T01:21:18;100157.34;;;4.63;80.08
79123;BME280;68526;44.600;26.032;2023-11-21T01:21:35;100158.72;;;4.60;80.19
79123;BME280;68526;44.600;26.032;2023-11-21T01:21:51;100158.72;;;4.60;80.44
79123;BME280;68526;44.600;26.032;2023-11-21T01:22:08;100160.09;;;4.58;80.77
79123;BME280;68526;44.600;26.032;2023-11-21T01:22:24;100161.94;;;4.62;80.64
79123;BME280;68526;44.600;26.032;2023-11-21T01:22:41;100169.00;;;4.63;80.18
79123;BME280;68526;44.600;26.032;2023-11-21T01:22:57;100164.09;;;4.65;80.46
79123;BME280;68526;44.600;26.032;2023-11-21T01:23:13;100164.41;;;4.64;80.19
79123;BME280;68526;44.600;26.032;2023-11-21T01:23:30;100161.22;;;4.57;80.18
79123;BME280;68526;44.600;26.032;2023-11-21T01:23:46;100161.22;;;4.57;80.50
79123;BME280;68526;44.600;26.032;2023-11-21T01:24:03;100154.44;;;4.54;80.95
79123;BME280;68526;44.600;26.032;2023-11-21T01:24:20;100160.94;;;4.53;81.10
79123;BME280;68526;44.600;26.032;2023-11-21T01:24:36;100161.22;;;4.57;80.79
79123;BME280;68526;44.600;26.032;2023-11-21T01:24:53;100155.22;;;4.54;81.05
79123;BME280;68526;44.600;26.032;2023-11-21T01:25:09;100150.94;;;4.48;80.72
79123;BME280;68526;44.600;26.032;2023-11-21T01:25:26;100162.31;;;4.50;80.80
79123;BME280;68526;44.600;26.032;2023-11-21T01:25:42;100158.53;;;4.51;80.91